Time;durP1;ratioP1;P1;durP2;ratioP2;P2;SDS_P1;SDS_P2;PMS_P1;PMS_P2;Temp;Humidity;BMP_temperature;BMP_pressure;BME280_temperature;BME280_humidity;BME280_pressure;Samples;Min_cycle;Max_cycle;Signal;HPM_P1;HPM_P2
2021/07/14 00:00:28;;;;;;;;;;;16.90;99.90;;;;;;5083452;28;20011;-74
2021/07/14 00:02:55;;;;;;;;;;;16.90;99.90;;;;;;5082257;28;20030;-73
2021/07/14 00:05:23;;;;;;;;;;;16.90;99.90;;;;;;5087560;28;20344;-73
2021/07/14 00:07:50;;;;;;;;;;;17.00;99.90;;;;;;5086299;28;19970;-74
2021/07/14 00:10:22;;;;;;;;;;;17.00;99.90;;;;;;5083111;28;19971;-73
2021/07/14 00:23:16;;;;;;;;;;;17.10;99.90;;;;;;5087171;28;19924;-72
2021/07/14 00:25:43;;;;;;;;;;;17.10;99.90;;;;;;5080263;28;20011;-72
2021/07/14 00:28:10;;;;;;;;;;;17.20;99.90;;;;;;5087808;28;19970;-72
2021/07/14 00:30:37;;;;;;;;;;;17.00;99.90;;;;;;5086984;28;20459;-71
2021/07/14 00:33:04;;;;;;;;;;;17.10;99.90;;;;;;5084543;27;20007;-73
2021/07/14 00:35:30;;;;;;;;;;;17.10;99.90;;;;;;5075643;28;19971;-74
2021/07/14 00:37:59;;;;;;;;;;;17.10;99.90;;;;;;5087279;28;20018;-73
2021/07/14 00:40:26;;;;;;;;;;;17.10;99.90;;;;;;5083638;28;19932;-73
2021/07/14 00:42:53;;;;;;;;;;;17.10;99.90;;;;;;5088667;28;19924;-73
2021/07/14 00:45:19;;;;;;;;;;;17.10;99.90;;;;;;5080565;28;19924;-72
2021/07/14 00:47:49;;;;;;;;;;;17.00;99.90;;;;;;5084734;28;20424;-73
2021/07/14 00:50:16;;;;;;;;;;;16.80;99.90;;;;;;5082509;28;19927;-73
2021/07/14 00:52:43;;;;;;;;;;;16.80;99.90;;;;;;5083525;28;20015;-72
2021/07/14 00:55:10;;;;;;;;;;;16.80;99.90;;;;;;5081240;28;19925;-73
2021/07/14 00:57:37;;;;;;;;;;;16.80;99.90;;;;;;5088980;28;20402;-72
2021/07/14 01:00:06;;;;;;;;;;;16.80;99.90;;;;;;5076312;28;19982;-72
2021/07/14 01:02:33;;;;;;;;;;;16.90;99.90;;;;;;5083674;28;19940;-72
2021/07/14 01:05:20;;;;;;;;;;;17.00;99.90;;;;;;5087329;28;19928;-72
2021/07/14 01:07:46;;;;;;;;;;;17.00;99.90;;;;;;5080382;28;19979;-72
2021/07/14 01:10:24;;;;;;;;;;;17.00;99.90;;;;;;5081325;28;20012;-72
2021/07/14 01:13:09;;;;;;;;;;;17.10;99.90;;;;;;5089328;28;19982;-72
2021/07/14 01:15:38;;;;;;;;;;;17.10;99.90;;;;;;5080876;28;19924;-72
2021/07/14 01:18:08;;;;;;;;;;;17.10;99.90;;;;;;5085339;28;19932;-72
2021/07/14 01:20:40;;;;;;;;;;;17.20;99.90;;;;;;5086533;27;20433;-72
2021/07/14 01:23:37;;;;;;;;;;;17.30;99.90;;;;;;5086966;28;19931;-72
2021/07/14 01:26:07;;;;;;;;;;;17.30;99.90;;;;;;5078401;27;19924;-72
2021/07/14 01:28:35;;;;;;;;;;;17.30;99.90;;;;;;5085080;28;20682;-72
2021/07/14 01:31:02;;;;;;;;;;;17.30;99.90;;;;;;5085299;28;19959;-72
2021/07/14 01:33:31;;;;;;;;;;;17.20;99.90;;;;;;5093606;28;19932;-73
2021/07/14 01:35:59;;;;;;;;;;;17.20;99.90;;;;;;5085227;28;19933;-72
2021/07/14 01:38:27;;;;;;;;;;;17.10;99.90;;;;;;5078028;28;20001;-72
2021/07/14 01:40:54;;;;;;;;;;;17.00;99.90;;;;;;5078551;28;20488;-73
2021/07/14 01:43:22;;;;;;;;;;;17.00;99.90;;;;;;5082506;28;19935;-72
2021/07/14 01:45:51;;;;;;;;;;;17.10;99.90;;;;;;5085485;28;19924;-73
2021/07/14 01:48:18;;;;;;;;;;;17.10;99.90;;;;;;5083716;28;20399;-72
2021/07/14 01:50:48;;;;;;;;;;;17.00;99.90;;;;;;5082748;28;19971;-72
2021/07/14 01:53:17;;;;;;;;;;;17.10;99.90;;;;;;5082083;28;19982;-72
2021/07/14 01:55:45;;;;;;;;;;;16.90;99.90;;;;;;5077111;28;19991;-72
2021/07/14 01:58:13;;;;;;;;;;;17.00;99.90;;;;;;5084923;28;19993;-72
2021/07/14 02:00:40;;;;;;;;;;;17.00;99.90;;;;;;5085526;28;20413;-72
2021/07/14 02:05:53;;;;;;;;;;;17.10;99.90;;;;;;5078741;28;19929;-72
2021/07/14 02:08:20;;;;;;;;;;;16.90;99.90;;;;;;5081043;27;20661;-73
2021/07/14 02:10:47;;;;;;;;;;;16.90;99.90;;;;;;5081137;28;20027;-73
2021/07/14 02:13:14;;;;;;;;;;;16.90;99.90;;;;;;5087169;28;19960;-72
2021/07/14 02:15:43;;;;;;;;;;;16.90;99.90;;;;;;5079979;28;20019;-72
2021/07/14 02:18:10;;;;;;;;;;;17.00;99.90;;;;;;5086218;28;19982;-72
2021/07/14 02:20:37;;;;;;;;;;;17.00;99.90;;;;;;5087124;28;19928;-72
2021/07/14 02:23:07;;;;;;;;;;;17.00;99.90;;;;;;5082613;28;22052;-73
2021/07/14 02:25:35;;;;;;;;;;;17.10;99.90;;;;;;5077974;28;19930;-73
2021/07/14 02:28:02;;;;;;;;;;;17.00;99.90;;;;;;5079655;28;19990;-73
2021/07/14 02:30:28;;;;;;;;;;;17.00;99.90;;;;;;5081297;28;19960;-72
2021/07/14 02:32:57;;;;;;;;;;;17.00;99.90;;;;;;5083012;28;20416;-72
2021/07/14 02:35:24;;;;;;;;;;;17.00;99.90;;;;;;5076813;28;19924;-72
2021/07/14 02:37:58;;;;;;;;;;;17.00;99.90;;;;;;5085625;28;20691;-72
2021/07/14 02:40:43;;;;;;;;;;;17.10;99.90;;;;;;5086313;28;20375;-72
2021/07/14 02:43:11;;;;;;;;;;;17.00;99.90;;;;;;5080996;28;20324;-72
2021/07/14 02:45:42;;;;;;;;;;;17.00;99.90;;;;;;5081606;28;20375;-72
2021/07/14 02:48:09;;;;;;;;;;;17.00;99.90;;;;;;5114670;28;19963;-72
2021/07/14 02:50:36;;;;;;;;;;;16.90;99.90;;;;;;5076911;28;20010;-73
2021/07/14 02:53:22;;;;;;;;;;;16.90;99.90;;;;;;5081644;28;19959;-71
2021/07/14 02:55:52;;;;;;;;;;;16.80;99.90;;;;;;5071690;28;20314;-72
2021/07/14 02:58:21;;;;;;;;;;;16.80;99.90;;;;;;5083729;28;19967;-73
2021/07/14 03:00:48;;;;;;;;;;;16.70;99.90;;;;;;5111158;28;20015;-72
2021/07/14 03:03:14;;;;;;;;;;;16.70;99.90;;;;;;5082771;28;19941;-72
2021/07/14 03:05:41;;;;;;;;;;;16.70;99.90;;;;;;5079838;28;20024;-72
2021/07/14 03:08:14;;;;;;;;;;;16.70;99.90;;;;;;5086255;28;20013;-72
2021/07/14 03:10:43;;;;;;;;;;;16.70;99.90;;;;;;5075496;28;19987;-71
2021/07/14 03:13:10;;;;;;;;;;;16.60;99.90;;;;;;5087059;28;20022;-73
2021/07/14 03:15:39;;;;;;;;;;;16.70;99.90;;;;;;5080790;28;19924;-73
2021/07/14 03:18:10;;;;;;;;;;;16.80;99.90;;;;;;5087878;28;19977;-73
2021/07/14 03:20:38;;;;;;;;;;;16.80;99.90;;;;;;5082732;28;19931;-73
2021/07/14 03:23:04;;;;;;;;;;;16.80;99.90;;;;;;5085220;28;19977;-73
2021/07/14 03:25:31;;;;;;;;;;;16.70;99.90;;;;;;5077367;28;19963;-73
2021/07/14 03:27:59;;;;;;;;;;;16.70;99.90;;;;;;5087784;28;19931;-73
2021/07/14 03:30:26;;;;;;;;;;;16.70;99.90;;;;;;5077035;28;20005;-73
2021/07/14 03:32:54;;;;;;;;;;;16.80;99.90;;;;;;5089788;28;19975;-73
2021/07/14 03:35:20;;;;;;;;;;;16.80;99.90;;;;;;5092577;28;20014;-74
2021/07/14 03:37:48;;;;;;;;;;;16.70;99.90;;;;;;5084133;28;20276;-74
2021/07/14 03:40:16;;;;;;;;;;;16.80;99.90;;;;;;5078831;28;20431;-74
2021/07/14 03:42:43;;;;;;;;;;;16.80;99.90;;;;;;5077717;28;20007;-73
2021/07/14 03:45:09;;;;;;;;;;;16.80;99.90;;;;;;5085278;28;19971;-74
2021/07/14 03:47:39;;;;;;;;;;;16.80;99.90;;;;;;5083737;28;20280;-73
2021/07/14 03:50:05;;;;;;;;;;;16.70;99.90;;;;;;5089938;28;19978;-74
2021/07/14 03:52:33;;;;;;;;;;;16.60;99.90;;;;;;5082525;28;19935;-74
2021/07/14 03:55:00;;;;;;;;;;;16.70;99.90;;;;;;5083970;28;19971;-74
2021/07/14 03:57:29;;;;;;;;;;;16.60;99.90;;;;;;5081803;28;19931;-74
2021/07/14 03:59:56;;;;;;;;;;;16.60;99.90;;;;;;5085819;28;19974;-73
2021/07/14 04:02:23;;;;;;;;;;;16.60;99.90;;;;;;5069690;28;20003;-74
2021/07/14 04:04:50;;;;;;;;;;;16.70;99.90;;;;;;5088917;28;20006;-74
2021/07/14 04:07:19;;;;;;;;;;;16.60;99.90;;;;;;5086534;28;20019;-74
2021/07/14 04:09:46;;;;;;;;;;;16.60;99.90;;;;;;5084290;28;20019;-74
2021/07/14 04:12:13;;;;;;;;;;;16.70;99.90;;;;;;5082431;28;19998;-73
2021/07/14 04:14:40;;;;;;;;;;;16.80;99.90;;;;;;5082268;27;20007;-73
2021/07/14 04:17:07;;;;;;;;;;;16.90;99.90;;;;;;5090018;28;20011;-74
2021/07/14 04:19:34;;;;;;;;;;;16.80;99.90;;;;;;5083486;28;19924;-73
2021/07/14 04:22:04;;;;;;;;;;;16.80;99.90;;;;;;5082079;28;19931;-73
2021/07/14 04:24:31;;;;;;;;;;;16.80;99.90;;;;;;5084247;28;19967;-73
2021/07/14 04:26:58;;;;;;;;;;;16.80;99.90;;;;;;5091441;28;20015;-73
2021/07/14 04:29:25;;;;;;;;;;;16.70;99.90;;;;;;5083322;28;19924;-74
2021/07/14 04:31:52;;;;;;;;;;;16.80;99.90;;;;;;5080744;28;20311;-74
2021/07/14 04:34:18;;;;;;;;;;;16.90;99.90;;;;;;5082793;28;19947;-74
2021/07/14 04:36:45;;;;;;;;;;;16.80;99.90;;;;;;5090218;28;20008;-74
2021/07/14 04:39:12;;;;;;;;;;;16.90;99.90;;;;;;5080850;28;19995;-73
2021/07/14 04:41:40;;;;;;;;;;;16.90;99.90;;;;;;5086587;28;20327;-73
2021/07/14 04:44:09;;;;;;;;;;;16.70;99.90;;;;;;5084569;28;20062;-73
2021/07/14 04:46:36;;;;;;;;;;;16.60;99.90;;;;;;5082770;28;20064;-74
2021/07/14 04:49:06;;;;;;;;;;;16.70;99.90;;;;;;5081006;28;19924;-67
2021/07/14 04:51:32;;;;;;;;;;;16.70;99.90;;;;;;5084227;28;19975;-68
2021/07/14 04:53:59;;;;;;;;;;;16.80;99.90;;;;;;5078131;28;20035;-73
2021/07/14 04:56:26;;;;;;;;;;;16.80;99.90;;;;;;5085830;28;19983;-74
2021/07/14 04:58:52;;;;;;;;;;;16.60;99.90;;;;;;5084717;28;20035;-72
2021/07/14 05:01:19;;;;;;;;;;;16.70;99.90;;;;;;5083862;28;20005;-73
2021/07/14 05:03:46;;;;;;;;;;;16.80;99.90;;;;;;5080777;28;19928;-74
2021/07/14 05:06:13;;;;;;;;;;;16.80;99.90;;;;;;5082802;28;19947;-74
2021/07/14 05:08:40;;;;;;;;;;;16.90;99.90;;;;;;5074177;28;19970;-75
2021/07/14 05:11:07;;;;;;;;;;;16.90;99.90;;;;;;5084969;28;20007;-67
2021/07/14 05:13:34;;;;;;;;;;;16.80;99.90;;;;;;5078461;28;20326;-69
2021/07/14 05:16:01;;;;;;;;;;;16.90;99.90;;;;;;5081122;28;19984;-68
2021/07/14 05:18:28;;;;;;;;;;;16.80;99.90;;;;;;5087605;28;20329;-67
2021/07/14 05:20:55;;;;;;;;;;;16.80;99.90;;;;;;5080591;28;20019;-68
2021/07/14 05:23:21;;;;;;;;;;;16.70;99.90;;;;;;5086253;28;19947;-67
2021/07/14 05:25:48;;;;;;;;;;;16.80;99.90;;;;;;5085168;28;19946;-67
2021/07/14 05:28:15;;;;;;;;;;;16.90;99.90;;;;;;5113271;27;19928;-69
2021/07/14 05:30:41;;;;;;;;;;;16.90;99.90;;;;;;5074278;28;19975;-68
2021/07/14 05:33:08;;;;;;;;;;;16.90;99.90;;;;;;5078480;28;20359;-69
2021/07/14 05:35:35;;;;;;;;;;;16.90;99.90;;;;;;5077039;28;19956;-66
2021/07/14 05:38:03;;;;;;;;;;;17.00;99.90;;;;;;5085687;28;20028;-66
2021/07/14 05:40:30;;;;;;;;;;;16.70;99.90;;;;;;5075609;28;20008;-67
2021/07/14 05:42:57;;;;;;;;;;;16.70;99.90;;;;;;5087033;28;19934;-67
2021/07/14 05:45:27;;;;;;;;;;;17.00;99.90;;;;;;5080870;28;19975;-66
2021/07/14 05:47:53;;;;;;;;;;;16.90;99.90;;;;;;5079997;28;19932;-66
2021/07/14 05:50:20;;;;;;;;;;;16.90;99.90;;;;;;5082327;28;19975;-68
2021/07/14 05:52:47;;;;;;;;;;;17.00;99.90;;;;;;5094580;28;19931;-68
2021/07/14 05:55:13;;;;;;;;;;;17.00;99.90;;;;;;5085739;28;19924;-68
2021/07/14 05:57:40;;;;;;;;;;;16.90;99.90;;;;;;5084002;28;20016;-67
2021/07/14 06:00:08;;;;;;;;;;;17.00;99.90;;;;;;5085650;28;19982;-68
2021/07/14 06:02:35;;;;;;;;;;;17.10;99.90;;;;;;5074951;28;20370;-69
2021/07/14 06:05:04;;;;;;;;;;;17.20;99.90;;;;;;5074365;27;20027;-67
2021/07/14 06:07:32;;;;;;;;;;;17.10;99.90;;;;;;5082163;28;20362;-68
2021/07/14 06:09:58;;;;;;;;;;;17.10;99.90;;;;;;5080625;28;19964;-67
2021/07/14 06:12:25;;;;;;;;;;;17.20;99.90;;;;;;5077508;28;20004;-66
2021/07/14 06:14:51;;;;;;;;;;;17.20;99.90;;;;;;5078676;28;20007;-66
2021/07/14 06:17:18;;;;;;;;;;;17.20;99.90;;;;;;5090040;28;20414;-66
2021/07/14 06:19:45;;;;;;;;;;;17.30;99.90;;;;;;5077596;27;20418;-66
2021/07/14 06:22:12;;;;;;;;;;;17.30;99.90;;;;;;5088805;28;20336;-67
2021/07/14 06:24:40;;;;;;;;;;;17.40;99.90;;;;;;5075992;28;19928;-68
2021/07/14 06:27:14;;;;;;;;;;;17.40;99.90;;;;;;5080693;28;19967;-66
2021/07/14 06:29:40;;;;;;;;;;;17.50;99.90;;;;;;5079733;28;19932;-67
2021/07/14 06:32:27;;;;;;;;;;;17.50;99.90;;;;;;5084935;28;19928;-67
2021/07/14 06:34:54;;;;;;;;;;;17.50;99.90;;;;;;5072809;28;19932;-75
2021/07/14 06:37:20;;;;;;;;;;;17.40;99.90;;;;;;5077701;28;20414;-73
2021/07/14 06:39:47;;;;;;;;;;;17.30;99.90;;;;;;5077735;28;20011;-73
2021/07/14 06:42:14;;;;;;;;;;;17.20;99.90;;;;;;5084710;28;20015;-73
2021/07/14 06:44:40;;;;;;;;;;;17.30;99.90;;;;;;5085035;28;20010;-72
2021/07/14 06:47:07;;;;;;;;;;;17.30;99.90;;;;;;5081077;28;20019;-73
2021/07/14 06:49:34;;;;;;;;;;;17.30;99.90;;;;;;5073938;28;19936;-74
2021/07/14 06:52:01;;;;;;;;;;;17.40;99.90;;;;;;5080588;27;19935;-73
2021/07/14 06:54:28;;;;;;;;;;;17.40;99.90;;;;;;5082084;28;19967;-73
2021/07/14 06:56:54;;;;;;;;;;;17.50;99.90;;;;;;5081417;28;20615;-71
2021/07/14 06:59:22;;;;;;;;;;;17.50;99.90;;;;;;5080049;28;19931;-73
2021/07/14 07:01:49;;;;;;;;;;;17.50;99.90;;;;;;5081420;28;19956;-74
2021/07/14 07:04:15;;;;;;;;;;;17.60;99.90;;;;;;5079642;28;19982;-73
2021/07/14 07:06:42;;;;;;;;;;;17.50;99.90;;;;;;5112091;27;19946;-74
2021/07/14 07:09:09;;;;;;;;;;;17.50;99.90;;;;;;5081322;27;19972;-73
2021/07/14 07:11:37;;;;;;;;;;;17.40;99.90;;;;;;5113962;27;20016;-72
2021/07/14 07:14:04;;;;;;;;;;;17.40;99.90;;;;;;5085433;28;19936;-73
2021/07/14 07:16:31;;;;;;;;;;;17.30;99.90;;;;;;5080994;28;20024;-73
2021/07/14 07:18:58;;;;;;;;;;;17.40;99.90;;;;;;5080510;28;19931;-73
2021/07/14 07:21:25;;;;;;;;;;;17.30;99.90;;;;;;5078580;28;20023;-73
2021/07/14 07:23:52;;;;;;;;;;;17.30;99.90;;;;;;5081534;28;19928;-74
2021/07/14 07:26:19;;;;;;;;;;;17.30;99.90;;;;;;5079931;28;20428;-72
2021/07/14 07:29:06;;;;;;;;;;;17.30;99.90;;;;;;5081067;28;19928;-73
2021/07/14 07:31:32;;;;;;;;;;;17.30;99.90;;;;;;5077495;28;19975;-72
2021/07/14 07:33:59;;;;;;;;;;;17.30;99.90;;;;;;5079637;28;19930;-73
2021/07/14 07:36:26;;;;;;;;;;;17.40;99.90;;;;;;5079843;28;19928;-73
2021/07/14 07:38:53;;;;;;;;;;;17.50;99.90;;;;;;5080124;27;20018;-73
2021/07/14 07:41:21;;;;;;;;;;;17.40;99.90;;;;;;5075705;28;20333;-74
2021/07/14 07:43:48;;;;;;;;;;;17.30;99.90;;;;;;5078947;28;20344;-73
2021/07/14 07:46:15;;;;;;;;;;;17.40;99.90;;;;;;5077240;28;19999;-72
2021/07/14 07:48:41;;;;;;;;;;;17.40;99.90;;;;;;5079692;28;19924;-73
2021/07/14 07:51:08;;;;;;;;;;;17.50;99.90;;;;;;5080133;28;19925;-73
2021/07/14 07:53:35;;;;;;;;;;;17.50;99.90;;;;;;5081020;28;20459;-73
2021/07/14 07:56:03;;;;;;;;;;;17.50;99.90;;;;;;5076053;27;20527;-73
2021/07/14 07:58:30;;;;;;;;;;;17.60;99.90;;;;;;5083390;28;20010;-73
2021/07/14 08:00:57;;;;;;;;;;;17.60;99.90;;;;;;5079568;28;20011;-74
2021/07/14 08:03:23;;;;;;;;;;;17.60;99.90;;;;;;5083676;28;20369;-73
2021/07/14 08:05:50;;;;;;;;;;;17.60;99.90;;;;;;5081339;28;19928;-74
2021/07/14 08:08:18;;;;;;;;;;;17.60;99.90;;;;;;5082547;28;20379;-74
2021/07/14 08:10:44;;;;;;;;;;;17.70;99.90;;;;;;5079749;28;19998;-75
2021/07/14 08:13:11;;;;;;;;;;;17.60;99.90;;;;;;5088247;28;19967;-74
2021/07/14 08:15:39;;;;;;;;;;;17.50;99.90;;;;;;5087381;28;20012;-74
2021/07/14 08:18:06;;;;;;;;;;;17.50;99.90;;;;;;5081917;28;20333;-72
2021/07/14 08:20:33;;;;;;;;;;;17.50;99.90;;;;;;5082318;28;19974;-74
2021/07/14 08:23:00;;;;;;;;;;;17.50;99.90;;;;;;5088033;28;19936;-74
2021/07/14 08:25:27;;;;;;;;;;;17.30;99.90;;;;;;5090114;28;19925;-74
2021/07/14 08:27:53;;;;;;;;;;;17.30;99.90;;;;;;5084296;28;20023;-75
2021/07/14 08:30:20;;;;;;;;;;;17.30;99.90;;;;;;5085165;28;19925;-75
2021/07/14 08:32:47;;;;;;;;;;;17.30;99.90;;;;;;5086291;28;20440;-74
2021/07/14 08:35:14;;;;;;;;;;;17.40;99.90;;;;;;5079430;28;20011;-74
2021/07/14 08:37:44;;;;;;;;;;;17.50;99.90;;;;;;5082099;28;19985;-74
2021/07/14 08:40:11;;;;;;;;;;;17.40;99.90;;;;;;5083062;28;20028;-74
2021/07/14 08:42:39;;;;;;;;;;;17.50;99.90;;;;;;5079344;28;19974;-73
2021/07/14 08:45:07;;;;;;;;;;;17.50;99.90;;;;;;5085609;28;20031;-74
2021/07/14 08:47:34;;;;;;;;;;;17.50;99.90;;;;;;5076227;28;20376;-74
2021/07/14 08:50:01;;;;;;;;;;;17.50;99.90;;;;;;5092334;28;20010;-75
2021/07/14 08:52:28;;;;;;;;;;;17.60;99.90;;;;;;5082654;28;20371;-75
2021/07/14 08:54:54;;;;;;;;;;;17.70;99.90;;;;;;5083555;28;19925;-75
2021/07/14 08:57:21;;;;;;;;;;;17.70;99.90;;;;;;5072761;28;19924;-75
2021/07/14 08:59:49;;;;;;;;;;;17.70;99.90;;;;;;5087428;27;20019;-69
2021/07/14 09:02:16;;;;;;;;;;;17.60;99.90;;;;;;5112086;27;19924;-74
2021/07/14 09:04:43;;;;;;;;;;;17.60;99.90;;;;;;5083802;28;20343;-68
2021/07/14 09:07:10;;;;;;;;;;;17.60;99.90;;;;;;5084067;28;19924;-68
2021/07/14 09:09:37;;;;;;;;;;;17.60;99.90;;;;;;5076601;28;19927;-68
2021/07/14 09:12:09;;;;;;;;;;;17.60;99.90;;;;;;5085678;28;19928;-68
2021/07/14 09:14:38;;;;;;;;;;;17.60;99.90;;;;;;5074409;28;20376;-67
2021/07/14 09:17:22;;;;;;;;;;;17.50;99.90;;;;;;5085303;28;19931;-67
2021/07/14 09:19:50;;;;;;;;;;;17.50;99.90;;;;;;5081811;28;19967;-66
2021/07/14 09:22:25;;;;;;;;;;;17.50;99.90;;;;;;5084568;28;20432;-68
2021/07/14 09:24:56;;;;;;;;;;;17.50;99.90;;;;;;5079958;28;19979;-67
2021/07/14 09:27:35;;;;;;;;;;;17.50;99.90;;;;;;5082398;28;19924;-66
2021/07/14 09:30:10;;;;;;;;;;;17.50;99.90;;;;;;5079918;28;19974;-67
2021/07/14 09:32:43;;;;;;;;;;;17.60;99.90;;;;;;5079610;28;19925;-66
2021/07/14 09:35:10;;;;;;;;;;;17.60;99.90;;;;;;5088650;28;19960;-66
2021/07/14 09:37:37;;;;;;;;;;;17.70;99.90;;;;;;5080238;28;20000;-68
2021/07/14 09:40:17;;;;;;;;;;;17.70;99.90;;;;;;5081496;28;19963;-66
2021/07/14 09:42:49;;;;;;;;;;;17.60;99.90;;;;;;5083417;28;19963;-68
2021/07/14 09:45:16;;;;;;;;;;;17.70;99.90;;;;;;5077426;27;19978;-68
2021/07/14 09:47:43;;;;;;;;;;;17.60;99.90;;;;;;5075659;28;19990;-68
2021/07/14 09:50:09;;;;;;;;;;;17.60;99.90;;;;;;5118312;27;19967;-68
2021/07/14 09:52:37;;;;;;;;;;;17.60;99.90;;;;;;5079962;28;19972;-67
2021/07/14 09:55:05;;;;;;;;;;;17.60;99.90;;;;;;5080266;28;19956;-66
2021/07/14 09:57:31;;;;;;;;;;;17.60;99.90;;;;;;5078363;28;19960;-66
2021/07/14 09:59:58;;;;;;;;;;;17.70;99.90;;;;;;5075453;28;19932;-66
2021/07/14 10:02:25;;;;;;;;;;;17.50;99.90;;;;;;5072469;28;19928;-66
2021/07/14 10:04:51;;;;;;;;;;;17.50;99.90;;;;;;5082314;28;20480;-66
2021/07/14 10:07:26;;;;;;;;;;;17.50;99.90;;;;;;5083829;28;20023;-67
2021/07/14 10:09:55;;;;;;;;;;;17.60;99.90;;;;;;5077401;28;19983;-66
2021/07/14 10:12:32;;;;;;;;;;;17.60;99.90;;;;;;5079122;28;20022;-66
2021/07/14 10:15:20;;;;;;;;;;;17.60;99.90;;;;;;5078061;28;19932;-66
2021/07/14 10:17:51;;;;;;;;;;;17.60;99.90;;;;;;5080503;28;19938;-70
2021/07/14 10:20:21;;;;;;;;;;;17.60;99.90;;;;;;5081290;28;19974;-66
2021/07/14 10:22:53;;;;;;;;;;;17.60;99.90;;;;;;5080560;28;19974;-66
2021/07/14 10:25:20;;;;;;;;;;;17.60;99.90;;;;;;5085911;28;19959;-66
2021/07/14 10:27:47;;;;;;;;;;;17.60;99.90;;;;;;5081696;28;20011;-68
2021/07/14 10:30:15;;;;;;;;;;;17.60;99.90;;;;;;5076737;28;19978;-67
2021/07/14 10:32:41;;;;;;;;;;;17.60;99.90;;;;;;5076092;27;19927;-65
2021/07/14 10:35:14;;;;;;;;;;;17.50;99.90;;;;;;5086823;28;19932;-68
2021/07/14 10:37:47;;;;;;;;;;;17.30;99.90;;;;;;5075948;28;20058;-72
2021/07/14 10:40:16;;;;;;;;;;;17.20;99.90;;;;;;5075217;28;20568;-68
2021/07/14 10:42:46;;;;;;;;;;;17.30;99.90;;;;;;5077445;28;19932;-70
2021/07/14 10:45:15;;;;;;;;;;;17.20;99.90;;;;;;5078285;28;19931;-68
2021/07/14 10:47:46;;;;;;;;;;;17.20;99.90;;;;;;5074419;28;19932;-66
2021/07/14 10:50:14;;;;;;;;;;;17.10;99.90;;;;;;5075613;28;19959;-67
2021/07/14 10:52:41;;;;;;;;;;;17.10;99.90;;;;;;5079964;28;20438;-67
2021/07/14 10:55:09;;;;;;;;;;;17.10;99.90;;;;;;5078431;28;20028;-67
2021/07/14 10:57:37;;;;;;;;;;;17.10;99.90;;;;;;5075575;28;20026;-69
2021/07/14 11:00:05;;;;;;;;;;;17.30;99.90;;;;;;5080087;28;20349;-72
2021/07/14 11:02:42;;;;;;;;;;;17.20;99.90;;;;;;5074426;28;19978;-72
2021/07/14 11:05:10;;;;;;;;;;;17.20;99.90;;;;;;5076255;27;19939;-72
2021/07/14 11:07:38;;;;;;;;;;;17.20;99.90;;;;;;5076051;28;20023;-72
2021/07/14 11:10:24;;;;;;;;;;;17.30;99.90;;;;;;5076361;28;21115;-72
2021/07/14 11:12:51;;;;;;;;;;;17.30;99.90;;;;;;5078332;28;20589;-72
2021/07/14 11:15:28;;;;;;;;;;;17.30;99.90;;;;;;5077704;28;20031;-72
2021/07/14 11:17:54;;;;;;;;;;;17.30;99.90;;;;;;5074703;28;19933;-72
2021/07/14 11:20:22;;;;;;;;;;;17.20;99.90;;;;;;5073451;28;20007;-72
2021/07/14 11:22:52;;;;;;;;;;;17.20;99.90;;;;;;5077491;28;19932;-66
2021/07/14 11:25:19;;;;;;;;;;;17.20;99.90;;;;;;5081497;28;20879;-66
2021/07/14 11:27:47;;;;;;;;;;;17.10;99.90;;;;;;5076736;28;19971;-66
2021/07/14 11:30:14;;;;;;;;;;;17.00;99.90;;;;;;5080463;28;20031;-67
2021/07/14 11:32:44;;;;;;;;;;;17.00;99.90;;;;;;5078916;28;20015;-68
2021/07/14 11:35:24;;;;;;;;;;;17.20;99.90;;;;;;5082188;28;19932;-66
2021/07/14 11:37:51;;;;;;;;;;;17.10;99.90;;;;;;5081510;28;19927;-67
2021/07/14 11:40:18;;;;;;;;;;;17.00;99.90;;;;;;5079262;28;19967;-68
2021/07/14 11:42:47;;;;;;;;;;;17.00;99.90;;;;;;5083106;28;20343;-66
2021/07/14 11:45:15;;;;;;;;;;;17.10;99.90;;;;;;5080635;28;19935;-65
2021/07/14 11:47:42;;;;;;;;;;;17.10;99.90;;;;;;5078607;28;19938;-68
2021/07/14 11:50:13;;;;;;;;;;;17.10;99.90;;;;;;5079493;28;20317;-68
2021/07/14 11:52:42;;;;;;;;;;;16.90;99.90;;;;;;5080081;27;19931;-68
2021/07/14 11:55:24;;;;;;;;;;;17.00;99.90;;;;;;5077975;28;20058;-68
2021/07/14 11:57:51;;;;;;;;;;;16.90;99.90;;;;;;5078020;28;20070;-66
2021/07/14 12:00:30;;;;;;;;;;;16.80;99.90;;;;;;5079238;28;20435;-68
2021/07/14 12:03:00;;;;;;;;;;;16.70;99.90;;;;;;5079520;28;19939;-67
2021/07/14 12:05:35;;;;;;;;;;;16.70;99.90;;;;;;5082453;28;20373;-67
2021/07/14 12:08:09;;;;;;;;;;;16.80;99.90;;;;;;5077416;27;20036;-67
2021/07/14 12:10:37;;;;;;;;;;;16.80;99.90;;;;;;5079148;28;20043;-67
2021/07/14 12:13:06;;;;;;;;;;;16.90;99.90;;;;;;5079625;28;19939;-67
2021/07/14 12:15:33;;;;;;;;;;;17.00;99.90;;;;;;5079277;28;20022;-66
2021/07/14 12:18:07;;;;;;;;;;;16.90;99.90;;;;;;5077184;28;19928;-67
2021/07/14 12:20:34;;;;;;;;;;;16.90;99.90;;;;;;5082139;28;20553;-66
2021/07/14 12:23:00;;;;;;;;;;;16.90;99.90;;;;;;5079463;27;19932;-67
2021/07/14 12:25:27;;;;;;;;;;;17.00;99.90;;;;;;5075233;28;20249;-67
2021/07/14 12:27:54;;;;;;;;;;;17.00;99.90;;;;;;5079365;28;20730;-66
2021/07/14 12:30:22;;;;;;;;;;;17.10;99.90;;;;;;5078005;28;19985;-67
2021/07/14 12:32:55;;;;;;;;;;;17.20;99.90;;;;;;5076797;28;20028;-66
2021/07/14 12:35:22;;;;;;;;;;;17.20;99.90;;;;;;5078418;28;20536;-66
2021/07/14 12:37:50;;;;;;;;;;;17.40;99.90;;;;;;5078880;28;20031;-66
2021/07/14 12:40:21;;;;;;;;;;;17.40;99.90;;;;;;5074854;27;19932;-66
2021/07/14 12:42:48;;;;;;;;;;;17.60;99.90;;;;;;5080749;28;19931;-67
2021/07/14 12:45:22;;;;;;;;;;;17.50;99.90;;;;;;5079473;28;19932;-67
2021/07/14 12:47:49;;;;;;;;;;;17.70;99.90;;;;;;5079394;28;19932;-67
2021/07/14 12:50:19;;;;;;;;;;;17.80;99.90;;;;;;5079426;28;19968;-66
2021/07/14 12:52:50;;;;;;;;;;;17.70;99.90;;;;;;5077510;28;19936;-68
2021/07/14 12:55:18;;;;;;;;;;;18.00;99.90;;;;;;5077398;28;19964;-66
2021/07/14 12:57:44;;;;;;;;;;;18.00;99.90;;;;;;5081195;28;20014;-66
2021/07/14 13:00:11;;;;;;;;;;;17.90;99.90;;;;;;5078199;28;19931;-67
2021/07/14 13:02:50;;;;;;;;;;;18.20;99.90;;;;;;5076764;28;19928;-66
2021/07/14 13:05:18;;;;;;;;;;;18.70;99.90;;;;;;5080191;28;20298;-68
2021/07/14 13:07:49;;;;;;;;;;;18.80;99.90;;;;;;5080230;28;20437;-74
2021/07/14 13:10:17;;;;;;;;;;;18.60;99.90;;;;;;5076854;28;20328;-74
2021/07/14 13:12:50;;;;;;;;;;;18.70;99.90;;;;;;5077228;28;19978;-72
2021/07/14 13:15:17;;;;;;;;;;;18.60;99.90;;;;;;5076296;28;20022;-72
2021/07/14 13:17:44;;;;;;;;;;;18.40;99.90;;;;;;5076298;28;20019;-74
2021/07/14 13:20:15;;;;;;;;;;;18.30;99.90;;;;;;5077695;28;19985;-73
2021/07/14 13:22:44;;;;;;;;;;;18.20;99.90;;;;;;5075431;28;19939;-71
2021/07/14 13:25:12;;;;;;;;;;;18.10;99.90;;;;;;5077658;28;20306;-78
2021/07/14 13:27:40;;;;;;;;;;;18.10;99.90;;;;;;5083366;28;19932;-73
2021/07/14 13:30:21;;;;;;;;;;;18.20;99.90;;;;;;5079718;28;19967;-69
2021/07/14 13:32:53;;;;;;;;;;;18.30;99.90;;;;;;5080663;28;20058;-70
2021/07/14 13:35:21;;;;;;;;;;;18.30;99.90;;;;;;5078548;28;20011;-69
2021/07/14 13:37:48;;;;;;;;;;;18.40;99.90;;;;;;5080335;28;19971;-70
2021/07/14 13:40:29;;;;;;;;;;;18.20;99.90;;;;;;5084946;28;20018;-70
2021/07/14 13:43:00;;;;;;;;;;;18.30;99.90;;;;;;5087872;28;19932;-69
2021/07/14 13:45:27;;;;;;;;;;;18.30;99.90;;;;;;5088922;28;20027;-69
2021/07/14 13:47:58;;;;;;;;;;;18.20;99.90;;;;;;5090092;28;19969;-70
2021/07/14 13:50:24;;;;;;;;;;;18.50;99.90;;;;;;5090333;28;19983;-69
2021/07/14 13:52:55;;;;;;;;;;;18.60;99.90;;;;;;5087886;28;19938;-70
2021/07/14 13:55:21;;;;;;;;;;;18.50;99.90;;;;;;5089154;28;20010;-70
2021/07/14 13:57:48;;;;;;;;;;;18.50;99.90;;;;;;5087273;28;19931;-70
2021/07/14 14:00:15;;;;;;;;;;;18.30;99.90;;;;;;5088944;28;19932;-70
2021/07/14 14:02:41;;;;;;;;;;;18.40;99.90;;;;;;5087580;28;19927;-69
2021/07/14 14:05:10;;;;;;;;;;;18.50;99.90;;;;;;5089781;28;20519;-70
2021/07/14 14:07:37;;;;;;;;;;;18.50;99.90;;;;;;5088230;28;19968;-68
2021/07/14 14:10:07;;;;;;;;;;;18.70;99.90;;;;;;5086183;28;19954;-69
2021/07/14 14:12:36;;;;;;;;;;;18.80;99.90;;;;;;5087226;28;20027;-70
2021/07/14 14:15:14;;;;;;;;;;;18.90;99.90;;;;;;5083721;27;20035;-69
2021/07/14 14:17:41;;;;;;;;;;;18.90;99.90;;;;;;5088863;28;20346;-68
2021/07/14 14:20:11;;;;;;;;;;;18.90;99.90;;;;;;5089703;28;19969;-69
2021/07/14 14:22:38;;;;;;;;;;;19.00;99.90;;;;;;5088499;28;19928;-69
2021/07/14 14:25:08;;;;;;;;;;;18.90;99.90;;;;;;5087424;28;19959;-69
2021/07/14 14:28:14;;;;;;;;;;;19.10;99.90;;;;;;5087956;28;19943;-70
2021/07/14 14:30:29;;;;;;;;;;;19.10;99.90;;;;;;5084513;27;20454;-69
2021/07/14 14:32:57;;;;;;;;;;;18.90;99.90;;;;;;5087817;28;19932;-69
2021/07/14 14:35:25;;;;;;;;;;;18.90;99.90;;;;;;5089307;28;19928;-69
2021/07/14 14:37:52;;;;;;;;;;;19.10;99.90;;;;;;5083747;28;20459;-69